Terminal Aerodrome Forecast
Issued by NWS

Home | Current Version | Previous Version | Text Only | Print | Product List | Glossary Off
Versions: 1 2 3 4 5 6 7 8 9 10 11 12 13 14 15 16 17 18 19 20 21 22 23 24 25 26 27 28 29 30 31 32 33 34 35 36 37 38 39

000
FTUS45 KBOU 251420 AAB
TAFBJC
TAF AMD
KBJC 251420Z 2514/2612 28016G28KT P6SM SCT120 BKN200
     FM251800 35010KT P6SM FEW140 BKN220
      TEMPO 2520/2523 33015G25KT
     FM260000 32008KT P6SM SCT220
     FM260300 27010KT P6SM SKC
      TEMPO 2603/2607 26015G25KT=

USA.gov is the U.S. government's official web portal to all federal, state and local government web resources and services.